Time;durP1;ratioP1;P1;durP2;ratioP2;P2;SDS_P1;SDS_P2;PMS_P1;PMS_P2;Temp;Humidity;BMP_temperature;BMP_pressure;BME280_temperature;BME280_humidity;BME280_pressure;Samples;Min_cycle;Max_cycle;Signal;HPM_P1;HPM_P2
2022/05/23 04:04:29;;;;;;;3.08;2.78;;;;;;;12.57;75.38;100092.53;5350582;33;30142;-85
2022/05/23 04:07:39;;;;;;;3.22;2.83;;;;;;;12.77;73.96;100089.97;5344776;33;34572;-89
2022/05/23 04:10:43;;;;;;;3.10;2.80;;;;;;;12.87;73.51;100095.84;5331230;33;32051;-88
2022/05/23 04:13:47;;;;;;;3.22;2.85;;;;;;;12.99;73.45;100109.62;5345890;33;33236;-85
2022/05/23 04:16:50;;;;;;;3.33;2.80;;;;;;;13.13;73.40;100100.56;5351138;33;33884;-86
2022/05/23 04:19:53;;;;;;;2.87;2.67;;;;;;;13.22;74.12;100093.09;5346417;33;34447;-85
2022/05/23 04:22:57;;;;;;;2.80;2.60;;;;;;;13.33;74.05;100092.53;5331549;33;32515;-86
2022/05/23 04:26:03;;;;;;;2.40;2.20;;;;;;;13.37;73.82;100087.56;5345143;33;34293;-86
2022/05/23 04:29:08;;;;;;;4.30;2.80;;;;;;;13.38;73.94;100087.34;5344853;33;33522;-86
2022/05/23 04:35:33;;;;;;;3.28;2.80;;;;;;;13.50;73.24;100090.28;5344289;33;33350;-86
2022/05/23 04:38:37;;;;;;;2.87;2.40;;;;;;;13.58;73.85;100086.59;5343889;33;33446;-86
2022/05/23 04:41:39;;;;;;;3.25;2.62;;;;;;;13.66;73.71;100089.09;5330163;33;33723;-85
2022/05/23 04:44:42;;;;;;;3.78;2.95;;;;;;;13.77;71.76;100087.66;5344243;33;33616;-85
2022/05/23 04:51:08;;;;;;;4.57;2.90;;;;;;;14.05;68.57;100087.47;5344271;33;33402;-88
2022/05/23 04:54:12;;;;;;;2.78;2.55;;;;;;;14.08;69.07;100084.34;5330569;33;32270;-86
2022/05/23 04:57:17;;;;;;;3.10;2.90;;;;;;;14.24;68.19;100083.09;5344623;33;33591;-89
2022/05/23 05:00:21;;;;;;;4.37;3.00;;;;;;;14.34;68.37;100085.41;5341958;33;33455;-89
2022/05/23 05:03:24;;;;;;;2.87;2.67;;;;;;;14.40;68.12;100096.22;5360788;27;34594;-86
2022/05/23 05:06:27;;;;;;;4.30;2.60;;;;;;;14.47;66.24;100105.16;5295266;33;33691;-84
2022/05/23 05:09:31;;;;;;;3.35;2.75;;;;;;;14.64;65.43;100096.62;5310426;33;32960;-85
2022/05/23 05:12:34;;;;;;;3.05;2.60;;;;;;;14.81;64.43;100097.03;5308712;33;33559;-87
2022/05/23 05:15:37;;;;;;;3.22;2.95;;;;;;;14.93;65.14;100111.56;5318816;33;33119;-87
2022/05/23 05:18:41;;;;;;;2.72;2.53;;;;;;;15.02;64.88;100118.41;5294247;33;32549;-87
2022/05/23 05:21:46;;;;;;;6.12;2.97;;;;;;;15.19;64.01;100113.38;5308129;33;33570;-87
2022/05/23 05:24:57;;;;;;;2.97;2.72;;;;;;;15.31;63.33;100105.37;5297005;33;33412;-86
2022/05/23 05:28:00;;;;;;;2.67;2.42;;;;;;;15.41;62.84;100105.75;5312474;33;33389;-85
2022/05/23 05:31:10;;;;;;;4.37;2.40;;;;;;;15.63;61.89;100111.69;5317924;33;34272;-85
2022/05/23 05:34:25;;;;;;;2.60;2.40;;;;;;;15.74;62.31;100102.06;5295160;33;32079;-90
2022/05/23 05:37:44;;;;;;;3.25;2.53;;;;;;;15.91;61.55;100108.59;5320061;33;33530;-85
2022/05/23 05:40:53;;;;;;;4.62;2.50;;;;;;;15.91;60.30;100113.22;5324865;33;34322;-86
2022/05/23 05:44:05;;;;;;;2.35;2.15;;;;;;;15.92;57.99;100106.75;5321209;33;34638;-86
2022/05/23 05:47:13;;;;;;;2.47;2.22;;;;;;;16.02;58.66;100104.38;5319033;33;33969;-86
2022/05/23 05:50:38;;;;;;;2.45;2.25;;;;;;;16.24;57.84;100102.94;5318356;33;33078;-86
2022/05/23 05:53:41;;;;;;;2.45;2.25;;;;;;;16.33;56.30;100109.75;5305430;33;32072;-86
2022/05/23 05:56:46;;;;;;;4.07;2.55;;;;;;;16.56;56.44;100100.16;5306371;33;32082;-86
2022/05/23 05:59:49;;;;;;;3.78;2.40;;;;;;;16.72;56.45;100107.72;5305563;33;32227;-85
2022/05/23 06:02:52;;;;;;;2.15;1.98;;;;;;;16.84;55.99;100105.13;5312179;33;31974;-86
2022/05/23 06:12:41;;;;;;;2.00;1.80;;;;;;;17.46;50.74;100099.56;5316970;33;34197;-85
2022/05/23 06:15:46;;;;;;;2.75;2.05;;;;;;;17.58;50.15;100102.31;5304831;33;32948;-86
2022/05/23 06:18:49;;;;;;;3.17;1.80;;;;;;;17.59;49.06;100107.56;5321288;33;33447;-85
2022/05/23 06:21:53;;;;;;;1.75;1.65;;;;;;;17.82;47.83;100108.75;5321301;33;33265;-85
2022/05/23 06:24:56;;;;;;;1.83;1.73;;;;;;;17.92;47.48;100119.88;5306447;33;32139;-85
2022/05/23 06:27:59;;;;;;;3.10;1.87;;;;;;;17.89;46.57;100114.91;5316933;33;33645;-90
2022/05/23 06:31:03;;;;;;;2.67;2.00;;;;;;;17.91;46.64;100118.25;5323170;33;34219;-89
2022/05/23 06:34:06;;;;;;;1.83;1.73;;;;;;;17.99;46.08;100112.47;5324535;33;33687;-90
2022/05/23 06:37:09;;;;;;;2.37;1.60;;;;;;;18.02;46.99;100109.28;5321002;33;32111;-87
2022/05/23 06:40:14;;;;;;;1.73;1.45;;;;;;;18.28;46.24;100102.56;5320957;33;34239;-86
2022/05/23 06:43:21;;;;;;;;;;;;;;;18.38;44.29;100098.41;5317482;33;32503;-86
2022/05/23 06:46:25;;;;;;;4.20;1.10;;;;;;;18.57;42.47;100089.91;5314155;33;34003;-86
2022/05/23 06:49:30;;;;;;;1.37;1.30;;;;;;;18.64;41.81;100095.22;5316864;33;34373;-86
2022/05/23 06:52:38;;;;;;;1.85;1.10;;;;;;;18.69;41.47;100078.97;5325362;33;33847;-85
2022/05/23 06:55:45;;;;;;;1.60;1.20;;;;;;;18.86;40.50;100078.25;5312442;33;31934;-85
2022/05/23 06:58:50;;;;;;;1.27;1.15;;;;;;;18.91;40.97;100070.19;5318297;33;32851;-85
2022/05/23 07:01:56;;;;;;;1.92;1.10;;;;;;;19.04;40.90;100069.91;5321009;33;32902;-85
2022/05/23 07:15:07;;;;;;;1.67;0.98;;;;;;;19.60;39.35;100060.13;5322175;33;32503;-85
2022/05/23 07:18:11;;;;;;;2.45;1.30;;;;;;;19.61;39.32;100067.22;5315350;33;33439;-85
2022/05/23 07:21:15;;;;;;;1.75;1.05;;;;;;;19.47;40.78;100061.22;5304976;33;31798;-85
2022/05/23 07:24:20;;;;;;;2.03;1.23;;;;;;;19.47;39.55;100058.50;5304014;33;31756;-85
2022/05/23 07:27:26;;;;;;;2.87;1.02;;;;;;;19.52;39.85;100056.94;5305679;33;33246;-85
2022/05/23 07:30:29;;;;;;;1.20;0.82;;;;;;;19.70;39.76;100060.31;5304770;33;32935;-86
2022/05/23 07:33:32;;;;;;;2.47;1.05;;;;;;;19.79;38.64;100052.56;5306620;33;32125;-86
2022/05/23 07:36:35;;;;;;;1.45;1.35;;;;;;;19.84;38.16;100049.09;5308610;33;34266;-87
2022/05/23 07:39:42;;;;;;;2.80;1.15;;;;;;;20.01;38.87;100054.56;5327123;33;34077;-87
2022/05/23 07:42:46;;;;;;;1.12;1.10;;;;;;;20.11;38.40;100052.81;5298828;33;33175;-90
2022/05/23 07:45:51;;;;;;;1.27;1.17;;;;;;;20.16;37.76;100041.16;5325314;33;33406;-90
2022/05/23 07:48:56;;;;;;;1.17;1.08;;;;;;;20.24;37.48;100042.62;5307011;33;32439;-85
2022/05/23 07:52:07;;;;;;;0.90;0.90;;;;;;;20.39;37.31;100038.22;5300139;33;32202;-86
2022/05/23 08:01:55;;;;;;;1.05;1.00;;;;;;;20.43;36.72;100046.75;5323447;33;33771;-85
2022/05/23 08:04:59;;;;;;;2.58;1.05;;;;;;;20.52;37.05;100044.41;5344400;33;33213;-85
2022/05/23 08:08:02;;;;;;;2.78;0.90;;;;;;;20.57;37.09;100042.62;5329934;33;32308;-85
2022/05/23 08:11:08;;;;;;;1.23;1.00;;;;;;;20.81;36.65;100042.38;5343095;33;33388;-85
2022/05/23 08:14:12;;;;;;;1.10;0.62;;;;;;;20.98;36.77;100034.94;5330505;33;32138;-84
2022/05/23 08:17:16;;;;;;;0.98;0.98;;;;;;;21.20;35.20;100031.34;5330713;33;31649;-84
2022/05/23 08:20:19;;;;;;;0.90;0.90;;;;;;;21.31;35.53;100019.44;5342454;33;33619;-85
2022/05/23 08:23:23;;;;;;;0.68;0.68;;;;;;;21.19;35.37;100032.44;5318594;33;33143;-84
2022/05/23 08:26:34;;;;;;;1.67;1.00;;;;;;;21.24;35.06;100021.56;5328014;33;33030;-84
2022/05/23 08:29:37;;;;;;;1.08;0.70;;;;;;;21.44;35.11;100005.38;5323926;33;32861;-84
2022/05/23 08:32:41;;;;;;;0.85;0.85;;;;;;;21.59;33.85;100009.34;5338418;33;33460;-84
2022/05/23 08:35:48;;;;;;;1.52;1.10;;;;;;;21.48;33.55;100008.41;5330361;33;32546;-84
2022/05/23 08:38:52;;;;;;;1.00;0.88;;;;;;;21.62;34.04;100008.84;5329003;33;32584;-84
2022/05/23 08:41:55;;;;;;;1.00;0.70;;;;;;;21.81;32.85;100001.84;5329026;33;32496;-84
2022/05/23 08:45:13;;;;;;;0.75;0.62;;;;;;;21.86;32.94;99996.44;5328600;33;32038;-83
2022/05/23 08:48:29;;;;;;;0.80;0.80;;;;;;;22.09;33.17;99992.50;5329936;33;31878;-83
2022/05/23 08:51:42;;;;;;;0.93;0.90;;;;;;;21.91;33.95;99991.00;5339844;33;34564;-88
2022/05/23 08:54:46;;;;;;;2.20;1.00;;;;;;;22.26;34.02;99986.03;5332883;33;33080;-84
2022/05/23 08:58:06;;;;;;;0.85;0.85;;;;;;;22.19;33.11;99989.84;5337949;33;32803;-84
2022/05/23 09:01:14;;;;;;;1.00;0.88;;;;;;;21.80;32.92;99986.50;5338949;33;33597;-83
2022/05/23 09:04:48;;;;;;;1.08;0.93;;;;;;;22.10;32.83;99982.34;5329935;33;31872;-84
2022/05/23 09:07:55;;;;;;;1.30;0.93;;;;;;;22.66;32.42;99966.22;5329735;33;32181;-84
2022/05/23 09:11:05;;;;;;;2.17;0.75;;;;;;;23.09;31.72;99967.78;5327392;33;31622;-84
2022/05/23 09:14:11;;;;;;;0.80;0.80;;;;;;;22.93;30.79;99965.22;5328212;33;32105;-84
2022/05/23 09:17:25;;;;;;;0.43;0.43;;;;;;;23.15;32.04;99965.88;5330118;33;32377;-83
2022/05/23 09:20:49;;;;;;;2.15;0.90;;;;;;;23.07;31.44;99966.41;5328647;33;32143;-83
2022/05/23 09:23:53;;;;;;;1.10;0.55;;;;;;;22.88;26.95;99966.06;5342893;33;34303;-83
2022/05/23 09:27:03;;;;;;;0.37;0.37;;;;;;;22.94;26.08;99961.41;5343775;33;33593;-83
2022/05/23 09:30:15;;;;;;;0.70;0.65;;;;;;;22.89;24.31;99961.38;5343942;33;33807;-83
2022/05/23 09:33:20;;;;;;;0.50;0.50;;;;;;;23.15;24.84;99965.06;5342456;33;33726;-86
2022/05/23 09:36:29;;;;;;;0.47;0.43;;;;;;;23.26;25.29;99964.81;5342986;33;33950;-87
2022/05/23 09:39:34;;;;;;;0.82;0.47;;;;;;;23.47;25.24;99962.09;5330367;33;32181;-83
2022/05/23 09:49:30;;;;;;;0.75;0.75;;;;;;;24.14;23.85;99954.66;5350773;33;33683;-83
2022/05/23 09:52:47;;;;;;;0.50;0.50;;;;;;;24.37;23.82;99951.28;5324974;33;32113;-83
2022/05/23 09:55:50;;;;;;;0.90;0.68;;;;;;;24.69;23.02;99947.37;5337287;33;32126;-83
2022/05/23 09:58:53;;;;;;;1.75;0.43;;;;;;;24.73;24.15;99947.63;5325799;33;32392;-83
2022/05/23 10:02:01;;;;;;;0.70;0.50;;;;;;;24.71;24.62;99947.06;5330411;33;32864;-83
2022/05/23 10:05:21;;;;;;;0.80;0.80;;;;;;;24.46;24.61;99940.56;5341741;33;33942;-84
2022/05/23 10:08:33;;;;;;;0.62;0.62;;;;;;;24.87;24.74;99946.72;5331492;33;33335;-84
2022/05/23 10:11:37;;;;;;;0.70;0.70;;;;;;;25.19;24.21;99950.16;5312211;33;33409;-84
2022/05/23 10:14:44;;;;;;;0.65;0.50;;;;;;;24.66;24.88;99948.75;5342774;33;34329;-84
2022/05/23 10:18:01;;;;;;;0.80;0.70;;;;;;;25.01;25.96;99940.56;5338944;33;33230;-84
2022/05/23 10:21:29;;;;;;;0.65;0.65;;;;;;;25.29;25.68;99936.31;5329510;33;33139;-85
2022/05/23 10:24:35;;;;;;;0.93;0.82;;;;;;;25.78;25.98;99927.91;5326271;33;32810;-85
2022/05/23 10:27:46;;;;;;;2.95;1.00;;;;;;;25.77;24.85;99930.97;5325512;33;32955;-84
2022/05/23 10:31:01;;;;;;;0.55;0.55;;;;;;;25.71;25.74;99926.59;5328527;33;32397;-84
2022/05/23 10:34:13;;;;;;;;;;;;;;;26.09;25.28;99918.53;5343104;33;33501;-84
2022/05/23 10:37:20;;;;;;;0.88;0.88;;;;;;;26.64;24.39;99916.25;5340085;33;33404;-84
2022/05/23 10:43:58;;;;;;;1.62;1.10;;;;;;;27.13;24.79;99917.78;5335345;33;34218;-84
2022/05/23 10:47:18;;;;;;;1.67;1.05;;;;;;;27.08;23.57;99909.56;5341704;33;34484;-84
2022/05/23 10:50:29;;;;;;;1.35;0.77;;;;;;;27.10;24.15;99910.91;5334911;33;34158;-84
2022/05/23 10:53:37;;;;;;;1.90;1.25;;;;;;;27.37;24.36;99907.47;5334387;33;33897;-84
2022/05/23 10:57:36;;;;;;;1.10;0.90;;;;;;;27.30;24.80;99900.69;5341158;33;33693;-84
2022/05/23 11:00:50;;;;;;;1.75;0.93;;;;;;;27.73;24.48;99890.28;5273285;33;32599;-85
2022/05/23 11:04:45;;;;;;;1.52;1.30;;;;;;;28.37;23.18;99884.09;5335843;33;33231;-85
2022/05/23 11:07:55;;;;;;;1.02;0.95;;;;;;;27.67;23.98;99882.38;5301441;33;31762;-84
2022/05/23 11:11:11;;;;;;;1.92;1.40;;;;;;;27.94;24.55;99884.41;5326747;33;32599;-84
2022/05/23 11:14:24;;;;;;;1.15;1.05;;;;;;;28.71;24.20;99878.94;5327111;33;31796;-85
2022/05/23 11:17:48;;;;;;;1.75;1.10;;;;;;;28.97;23.24;99877.56;5344952;33;30431;-85
2022/05/23 11:20:56;;;;;;;1.00;0.85;;;;;;;28.77;22.81;99874.13;5331058;33;32434;-82
2022/05/23 11:24:07;;;;;;;0.90;0.90;;;;;;;29.01;23.23;99882.16;5330243;33;33790;-87
2022/05/23 11:34:27;;;;;;;1.07;1.07;;;;;;;31.11;20.78;99873.66;5334530;33;33482;-84
2022/05/23 11:37:49;;;;;;;0.85;0.85;;;;;;;30.80;21.11;99876.59;5318315;33;31960;-84
2022/05/23 11:41:10;;;;;;;1.20;1.05;;;;;;;30.22;21.33;99879.41;5318437;33;32454;-84
2022/05/23 11:44:42;;;;;;;1.17;1.08;;;;;;;29.73;23.06;99866.56;5319183;33;32047;-84
2022/05/23 11:47:50;;;;;;;1.37;0.90;;;;;;;28.05;23.86;99872.00;5323206;33;32191;-84
2022/05/23 11:50:56;;;;;;;1.17;0.88;;;;;;;27.29;25.69;99865.88;5323434;33;33762;-89
2022/05/23 11:54:00;;;;;;;1.98;1.37;;;;;;;27.17;25.37;99858.03;5342025;33;33148;-85
2022/05/23 11:57:03;;;;;;;3.22;1.30;;;;;;;26.87;25.95;99860.12;5333671;33;34910;-84
2022/05/23 12:00:06;;;;;;;1.35;1.00;;;;;;;26.51;26.33;99861.78;5341276;33;34748;-85
2022/05/23 12:03:15;;;;;;;1.05;0.95;;;;;;;26.90;26.75;99856.78;5340026;33;33428;-84
2022/05/23 12:06:37;;;;;;;1.25;1.15;;;;;;;27.73;25.32;99850.72;5325092;33;33576;-84
2022/05/23 12:09:40;;;;;;;0.90;0.90;;;;;;;28.01;24.36;99857.13;5326401;33;33203;-84
2022/05/23 12:12:47;;;;;;;0.90;0.90;;;;;;;29.06;24.42;99848.81;5341536;33;33561;-84
2022/05/23 12:15:53;;;;;;;4.30;1.37;;;;;;;28.89;23.06;99862.50;5324398;33;32253;-84
2022/05/23 12:19:12;;;;;;;1.85;1.12;;;;;;;29.25;23.35;99856.97;5341930;33;35506;-84
2022/05/23 12:22:43;;;;;;;1.67;0.98;;;;;;;29.76;22.97;99860.38;5324475;33;32116;-84
2022/05/23 12:26:05;;;;;;;1.17;1.08;;;;;;;29.00;22.45;99869.44;5328850;33;32844;-84
2022/05/23 12:29:40;;;;;;;0.90;0.90;;;;;;;27.84;24.31;99843.91;5348632;33;32193;-84
2022/05/23 12:32:47;;;;;;;1.00;1.00;;;;;;;27.32;24.73;99840.37;5335765;33;34992;-87
2022/05/23 12:35:59;;;;;;;2.25;1.20;;;;;;;26.67;25.63;99828.09;5361350;33;34950;-84
2022/05/23 12:39:24;;;;;;;2.22;1.17;;;;;;;26.21;26.35;99833.41;5344327;33;34822;-84
2022/05/23 12:42:50;;;;;;;2.50;1.42;;;;;;;26.69;26.94;99816.78;5341509;33;34155;-84
2022/05/23 12:45:53;;;;;;;1.67;1.02;;;;;;;26.97;26.08;99805.84;5329704;33;32424;-84
2022/05/23 12:49:21;;;;;;;1.23;1.05;;;;;;;27.49;25.25;99826.00;5342950;33;33560;-84
2022/05/23 12:52:39;;;;;;;1.35;1.02;;;;;;;28.84;24.00;99799.72;5341342;33;34193;-84
2022/05/23 12:56:05;;;;;;;1.55;1.42;;;;;;;29.78;22.78;99795.09;5341994;33;33535;-84
2022/05/23 12:59:40;;;;;;;0.95;0.93;;;;;;;31.61;20.62;99803.56;5343164;33;33369;-84
2022/05/23 13:02:50;;;;;;;1.20;1.10;;;;;;;32.46;19.71;99805.47;5342952;33;34020;-86
2022/05/23 13:06:05;;;;;;;0.80;0.80;;;;;;;33.08;18.64;99803.81;5336047;33;259561;-85
2022/05/23 13:09:16;;;;;;;1.33;0.90;;;;;;;34.26;17.85;99786.34;5343841;33;33368;-85
2022/05/23 13:12:44;;;;;;;1.15;0.90;;;;;;;33.50;17.86;99782.22;5329700;33;32938;-85
2022/05/23 13:15:47;;;;;;;1.58;1.35;;;;;;;32.46;18.69;99778.41;5345058;33;34546;-85
2022/05/23 13:22:24;;;;;;;1.62;1.10;;;;;;;31.23;20.34;99765.34;5345119;33;33552;-85
2022/05/23 13:25:29;;;;;;;3.03;1.25;;;;;;;32.20;19.29;99775.78;5338090;33;33473;-85
2022/05/23 13:28:41;;;;;;;0.95;0.90;;;;;;;32.99;18.95;99766.84;5314585;33;32098;-85
2022/05/23 13:31:44;;;;;;;2.65;1.33;;;;;;;34.00;17.90;99760.75;5320602;33;32084;-85
2022/05/23 13:34:49;;;;;;;1.90;1.05;;;;;;;34.84;17.61;99755.34;5319826;33;31698;-85
2022/05/23 13:37:52;;;;;;;1.62;1.00;;;;;;;34.84;16.79;99755.34;5321983;33;33821;-85
2022/05/23 13:41:05;;;;;;;1.08;0.90;;;;;;;32.47;18.43;99762.53;5314541;33;32905;-85
2022/05/23 13:44:19;;;;;;;1.42;1.33;;;;;;;31.33;19.59;99750.28;5320574;33;32018;-89
2022/05/23 13:47:29;;;;;;;1.23;0.80;;;;;;;30.75;20.59;99743.34;5312469;33;32153;-86
2022/05/23 13:50:42;;;;;;;2.83;0.93;;;;;;;31.29;19.83;99747.34;5326592;33;33546;-85
2022/05/23 13:53:52;;;;;;;1.12;0.90;;;;;;;32.67;18.53;99755.28;5330366;33;31880;-85
2022/05/23 13:57:05;;;;;;;1.20;0.90;;;;;;;33.40;18.23;99746.38;5310460;33;33359;-85
2022/05/23 14:00:20;;;;;;;1.80;1.00;;;;;;;33.95;16.98;99744.22;5311895;33;31796;-85
2022/05/23 14:03:33;;;;;;;1.70;1.00;;;;;;;33.97;17.58;99745.50;5324493;33;34060;-85
2022/05/23 14:06:45;;;;;;;0.98;0.98;;;;;;;33.10;18.24;99735.38;5326379;33;33900;-86
2022/05/23 14:09:51;;;;;;;2.30;0.90;;;;;;;31.90;18.72;99732.38;5325504;33;34174;-85
2022/05/23 14:12:56;;;;;;;0.95;0.90;;;;;;;30.91;20.69;99733.34;5324056;33;34192;-86
2022/05/23 14:16:01;;;;;;;1.12;1.02;;;;;;;29.83;21.18;99731.12;5324042;33;32577;-85
2022/05/23 14:19:19;;;;;;;2.00;0.88;;;;;;;29.49;21.55;99734.56;5314124;33;31730;-85
2022/05/23 14:22:25;;;;;;;0.85;0.85;;;;;;;28.75;22.55;99725.94;5324442;33;33676;-86
2022/05/23 14:25:36;;;;;;;1.20;1.00;;;;;;;28.73;22.49;99729.06;5324214;33;34676;-85
2022/05/23 14:28:48;;;;;;;2.58;0.90;;;;;;;28.26;23.57;99722.94;5327516;33;33429;-85
2022/05/23 14:31:52;;;;;;;1.52;0.95;;;;;;;28.34;24.63;99729.66;5338079;33;35037;-85
2022/05/23 14:34:55;;;;;;;2.45;1.10;;;;;;;27.66;24.51;99717.56;5334652;33;36233;-86
2022/05/23 14:37:59;;;;;;;0.90;0.90;;;;;;;27.21;24.62;99718.16;5335913;33;34890;-88
2022/05/23 14:41:13;;;;;;;2.03;0.90;;;;;;;26.84;25.77;99713.53;5339043;33;35696;-89
2022/05/23 14:44:32;;;;;;;0.70;0.68;;;;;;;26.35;26.44;99715.62;5321938;33;33703;-86
2022/05/23 14:47:37;;;;;;;1.02;0.90;;;;;;;26.50;27.30;99713.78;5324560;33;33798;-86
2022/05/23 14:50:52;;;;;;;0.93;0.93;;;;;;;26.53;26.01;99707.66;5331277;33;33580;-85
2022/05/23 15:00:55;;;;;;;0.90;0.90;;;;;;;26.22;26.56;99703.41;5324423;33;34128;-85
2022/05/23 15:03:58;;;;;;;2.40;0.98;;;;;;;26.18;26.72;99694.09;5319996;33;32201;-85
2022/05/23 15:07:02;;;;;;;1.15;1.05;;;;;;;26.06;26.95;99695.66;5312327;33;32854;-85
2022/05/23 15:10:07;;;;;;;1.08;0.95;;;;;;;25.77;27.53;99696.59;5309875;33;33479;-85
2022/05/23 15:13:11;;;;;;;1.73;1.35;;;;;;;25.61;27.73;99684.91;5323712;33;34205;-85
2022/05/23 15:16:23;;;;;;;1.30;1.20;;;;;;;25.44;28.51;99690.88;5361374;27;33464;-89
2022/05/23 15:19:31;;;;;;;1.08;1.02;;;;;;;25.32;28.83;99688.53;5358998;33;34027;-86
2022/05/23 15:22:34;;;;;;;1.40;1.25;;;;;;;25.12;29.32;99677.72;5367351;33;33746;-87
2022/05/23 15:25:38;;;;;;;4.40;1.50;;;;;;;25.09;28.80;99672.78;5372378;33;34001;-87
2022/05/23 15:28:41;;;;;;;1.42;1.33;;;;;;;24.92;29.17;99664.97;5363139;33;32332;-87
2022/05/23 15:31:50;;;;;;;2.40;1.37;;;;;;;25.02;29.21;99669.56;5390824;27;33440;-87
2022/05/23 15:34:53;;;;;;;1.60;1.50;;;;;;;24.70;29.18;99654.44;5359663;33;34445;-87
2022/05/23 15:38:08;;;;;;;1.52;1.42;;;;;;;24.44;29.60;99659.34;5375076;27;32251;-87
2022/05/23 15:41:23;;;;;;;1.60;1.50;;;;;;;24.37;30.10;99656.91;5370759;33;33806;-87
2022/05/23 15:44:44;;;;;;;1.60;1.50;;;;;;;24.23;30.46;99663.34;5398933;27;35331;-88
2022/05/23 15:47:49;;;;;;;1.48;1.37;;;;;;;24.16;31.35;99655.38;5369587;33;33487;-87
2022/05/23 15:50:53;;;;;;;1.67;1.58;;;;;;;24.03;30.65;99647.78;5371443;33;33430;-87
2022/05/23 15:53:56;;;;;;;1.55;1.45;;;;;;;24.03;30.71;99653.28;5352406;33;32565;-87
2022/05/23 15:57:00;;;;;;;1.58;1.30;;;;;;;23.88;30.86;99655.00;5351229;33;32186;-87
2022/05/23 16:00:12;;;;;;;2.05;1.87;;;;;;;23.83;30.99;99649.53;5355307;33;33046;-87
